Alex, Minnesota
Current Conditions -  °F | °C
As of 8:53 AM on Wednesday 26 Nov 2014 (Local Time) from KAXN Reporting Station
Broken Clouds Broken Clouds  
Wind Chill:   Ceiling: 10000
Heat Index: 18°   Visibility: 10mi
Dew Point: 13°   Wind: 13mph
Humidity: 81%   Direction: 20°NNE
Pressure: 30.18"   Gusts: NA
Location:  45.8551°N, 95.4333°W
Report Text: KAXN 261453Z AUTO 02011KT 10SM BKN100 M08/M11 A3018 RMK AO2 SLP247 60000 T10781106 51020
Loading
Personal Weather Stations






























Interactive Weather Map New forecast layout! Learn more

10-Day Weather Forecast

Advertisements
Track Severe Weather on mobile